PDT,Max TemperatureF,Mean TemperatureF,Min TemperatureF,Max Dew PointF,MeanDew PointF,Min DewpointF,Max Humidity, Mean Humidity, Min Humidity, Max Sea Level PressureIn, Mean Sea Level PressureIn, Min Sea Level PressureIn, Max VisibilityMiles, Mean VisibilityMiles, Min VisibilityMiles, Max Wind SpeedMPH, Mean Wind SpeedMPH, Max Gust SpeedMPH,PrecipitationIn, CloudCover, Events, WindDirDegrees
2012-10-1,80,59,37,31,27,23,70,41,12,30.28,30.15,30.05,10,10,10,16,8,20,0.00,0,,173
2012-10-2,80,59,37,30,24,18,64,37,10,30.24,29.98,29.89,10,10,10,18,10,22,0.00,0,,180
2012-10-3,78,59,39,30,23,18,54,33,12,30.02,29.94,29.89,10,10,10,18,9,43,0.00,0,,221
2012-10-4,76,55,33,24,21,19,56,34,12,30.06,29.98,29.92,10,10,10,24,9,30,0.00,0,,220
2012-10-5,70,52,33,27,21,18,61,39,16,30.25,30.04,29.97,10,10,10,21,7,25,0.00,0,,234
2012-10-6,65,46,26,23,16,10,69,41,13,30.18,30.06,29.97,10,10,10,14,5,21,0.00,0,,75
2012-10-7,69,45,20,15,11,4,68,38,8,30.23,30.08,29.98,10,10,10,12,5,15,0.00,0,,162
2012-10-8,71,53,34,22,19,15,47,30,12,30.04,29.92,29.85,10,10,10,20,9,24,0.00,0,,189
2012-10-9,72,53,34,25,20,15,52,32,12,30.02,29.91,29.83,10,10,10,17,8,22,0.00,0,,184
2012-10-10,68,53,37,48,36,22,100,62,24,30.11,29.95,29.87,10,10,4,25,8,30,0.10,3,Rain-Thunderstorm,153
2012-10-11,66,50,34,46,40,34,100,68,36,30.00,29.93,29.83,10,10,10,28,8,37,0.04,5,Rain,185
2012-10-12,54,45,35,45,40,35,100,75,50,30.15,29.96,29.84,10,10,5,20,4,25,0.51,7,Rain,191
2012-10-13,62,48,34,44,38,34,100,69,37,30.37,30.18,30.01,10,10,10,17,6,21,0.00,1,,150
2012-10-14,68,50,31,41,35,30,100,66,31,30.38,30.25,30.14,10,10,10,15,6,17,0.00,0,,172
2012-10-15,71,52,32,36,32,26,92,56,20,30.23,30.07,29.97,10,10,10,16,8,20,0.00,0,,187
2012-10-16,75,55,34,37,34,30,89,57,25,30.15,29.91,29.75,10,10,10,28,10,33,0.00,0,,222
2012-10-17,64,45,26,32,17,0,92,50,8,30.21,30.09,29.96,10,10,10,15,7,20,0.00,0,,358
2012-10-18,68,46,24,24,17,7,74,43,11,30.32,30.22,30.14,10,10,10,15,7,17,0.00,0,,162
2012-10-19,75,52,29,25,22,19,75,44,13,30.18,30.01,29.84,10,10,10,16,10,21,0.00,0,,186
2012-10-20,72,53,34,28,24,20,69,42,14,29.90,29.72,29.59,10,10,10,20,10,26,0.00,0,,177
2012-10-21,66,51,36,36,31,26,70,47,24,29.76,29.64,29.60,10,10,10,21,11,25,0.00,2,,184
2012-10-22,59,52,45,39,35,31,71,54,36,29.77,29.60,29.52,10,10,9,39,22,48,0.08,6,Rain,183
2012-10-23,51,42,32,33,29,23,92,63,33,29.94,29.76,29.59,10,10,3,22,11,28,0.02,6,Snow,247
2012-10-24,42,34,26,31,29,25,100,81,62,30.15,29.98,29.86,10,7,0,24,5,29,0.16,7,Fog-Snow,4
2012-10-25,40,31,21,30,23,18,92,76,59,30.46,30.27,30.14,10,10,4,24,5,29,T,4,Snow,286
2012-10-26,52,34,15,21,16,8,92,55,18,30.49,30.34,30.20,10,10,10,12,5,14,0.00,0,,171
2012-10-27,59,40,21,30,23,15,78,52,26,30.25,30.18,30.09,10,10,10,17,8,20,0.00,0,,164
2012-10-28,65,46,26,30,25,21,81,54,27,30.26,30.13,30.03,10,10,10,23,8,100,0.00,0,,180
2012-10-29,69,49,29,27,24,21,72,45,18,30.24,30.16,30.09,10,10,10,15,7,17,0.00,0,,174
2012-10-30,70,50,29,26,22,19,69,43,16,30.28,30.12,30.02,10,10,10,15,8,18,0.00,0,,182
2012-10-31,69,49,29,25,19,12,69,40,11,30.17,30.01,29.87,10,10,10,24,13,30,0.00,0,,177